sensor_id;sensor_type;location;lat;lon;timestamp;pressure;altitude;pressure_sealevel;temperature;humidity
23281;BME280;11809;56.390;-3.266;2022-07-11T00:00:58;101876.31;;;22.29;56.35
23281;BME280;11809;56.390;-3.266;2022-07-11T00:03:25;101878.13;;;22.28;56.40
23281;BME280;11809;56.390;-3.266;2022-07-11T00:05:51;101883.50;;;22.28;56.78
23281;BME280;11809;56.390;-3.266;2022-07-11T00:08:18;101883.63;;;22.27;56.29
23281;BME280;11809;56.390;-3.266;2022-07-11T00:10:45;101885.31;;;22.28;56.91
23281;BME280;11809;56.390;-3.266;2022-07-11T00:13:13;101886.16;;;22.28;56.58
23281;BME280;11809;56.390;-3.266;2022-07-11T00:15:40;101884.44;;;22.27;56.57
23281;BME280;11809;56.390;-3.266;2022-07-11T00:18:07;101881.03;;;22.25;56.53
23281;BME280;11809;56.390;-3.266;2022-07-11T00:20:34;101877.38;;;22.26;56.30
23281;BME280;11809;56.390;-3.266;2022-07-11T00:23:01;101875.56;;;22.27;56.19
23281;BME280;11809;56.390;-3.266;2022-07-11T00:25:28;101885.44;;;22.26;56.28
23281;BME280;11809;56.390;-3.266;2022-07-11T00:27:55;101872.13;;;22.25;55.83
23281;BME280;11809;56.390;-3.266;2022-07-11T00:30:22;101868.63;;;22.24;55.98
23281;BME280;11809;56.390;-3.266;2022-07-11T00:32:48;101865.94;;;22.24;56.22
23281;BME280;11809;56.390;-3.266;2022-07-11T00:35:15;101866.16;;;22.21;56.04
23281;BME280;11809;56.390;-3.266;2022-07-11T00:37:42;101859.81;;;22.22;55.88
23281;BME280;11809;56.390;-3.266;2022-07-11T00:40:09;101857.13;;;22.22;56.11
23281;BME280;11809;56.390;-3.266;2022-07-11T00:42:36;101846.66;;;22.19;56.27
23281;BME280;11809;56.390;-3.266;2022-07-11T00:45:04;101850.06;;;22.21;56.11
23281;BME280;11809;56.390;-3.266;2022-07-11T00:47:31;101843.00;;;22.20;56.28
23281;BME280;11809;56.390;-3.266;2022-07-11T00:49:58;101846.66;;;22.19;56.36
23281;BME280;11809;56.390;-3.266;2022-07-11T00:52:25;101843.13;;;22.19;56.09
23281;BME280;11809;56.390;-3.266;2022-07-11T00:54:53;101837.84;;;22.17;56.44
23281;BME280;11809;56.390;-3.266;2022-07-11T00:57:21;101841.50;;;22.16;56.61
23281;BME280;11809;56.390;-3.266;2022-07-11T00:59:48;101847.81;;;22.15;56.40
23281;BME280;11809;56.390;-3.266;2022-07-11T01:02:15;101846.22;;;22.13;56.20
23281;BME280;11809;56.390;-3.266;2022-07-11T01:04:42;101852.44;;;22.13;56.37
23281;BME280;11809;56.390;-3.266;2022-07-11T01:07:09;101845.34;;;22.12;56.61
23281;BME280;11809;56.390;-3.266;2022-07-11T01:09:36;101846.31;;;22.11;56.36
23281;BME280;11809;56.390;-3.266;2022-07-11T01:12:04;101848.16;;;22.11;56.49
23281;BME280;11809;56.390;-3.266;2022-07-11T01:14:31;101852.63;;;22.10;56.22
23281;BME280;11809;56.390;-3.266;2022-07-11T01:16:58;101849.22;;;22.08;56.40
23281;BME280;11809;56.390;-3.266;2022-07-11T01:19:25;101852.63;;;22.10;56.58
23281;BME280;11809;56.390;-3.266;2022-07-11T01:21:56;101853.59;;;22.09;56.54
23281;BME280;11809;56.390;-3.266;2022-07-11T01:24:23;101850.91;;;22.09;56.38
23281;BME280;11809;56.390;-3.266;2022-07-11T01:26:51;101843.00;;;22.08;56.36
23281;BME280;11809;56.390;-3.266;2022-07-11T01:29:18;101841.28;;;22.07;56.17
23281;BME280;11809;56.390;-3.266;2022-07-11T01:31:45;101838.72;;;22.05;56.61
23281;BME280;11809;56.390;-3.266;2022-07-11T01:34:12;101830.16;;;22.00;56.57
23281;BME280;11809;56.390;-3.266;2022-07-11T01:36:39;101839.56;;;22.06;56.40
23281;BME280;11809;56.390;-3.266;2022-07-11T01:39:06;101839.56;;;22.06;56.59
23281;BME280;11809;56.390;-3.266;2022-07-11T01:41:33;101833.56;;;22.02;56.55
23281;BME280;11809;56.390;-3.266;2022-07-11T01:44:00;101829.06;;;22.03;56.41
23281;BME280;11809;56.390;-3.266;2022-07-11T01:46:27;101830.88;;;22.02;56.71
23281;BME280;11809;56.390;-3.266;2022-07-11T01:48:54;101831.84;;;22.01;56.56
23281;BME280;11809;56.390;-3.266;2022-07-11T01:51:22;101819.44;;;22.00;56.65
23281;BME280;11809;56.390;-3.266;2022-07-11T01:53:50;101824.78;;;22.00;56.50
23281;BME280;11809;56.390;-3.266;2022-07-11T01:56:17;101821.34;;;21.98;56.34
23281;BME280;11809;56.390;-3.266;2022-07-11T01:58:47;101817.81;;;21.98;56.95
23281;BME280;11809;56.390;-3.266;2022-07-11T02:01:15;101819.66;;;21.97;56.70
23281;BME280;11809;56.390;-3.266;2022-07-11T02:03:42;101826.81;;;21.97;56.55
23281;BME280;11809;56.390;-3.266;2022-07-11T02:06:10;101825.09;;;21.96;56.61
23281;BME280;11809;56.390;-3.266;2022-07-11T02:08:37;101819.84;;;21.94;56.70
23281;BME280;11809;56.390;-3.266;2022-07-11T02:11:04;101821.66;;;21.94;56.69
23281;BME280;11809;56.390;-3.266;2022-07-11T02:13:31;101828.22;;;21.90;56.70
23281;BME280;11809;56.390;-3.266;2022-07-11T02:15:58;101821.78;;;21.92;56.68
23281;BME280;11809;56.390;-3.266;2022-07-11T02:18:26;101828.09;;;21.91;56.94
23281;BME280;11809;56.390;-3.266;2022-07-11T02:20:53;101826.28;;;21.92;56.80
23281;BME280;11809;56.390;-3.266;2022-07-11T02:23:20;101825.53;;;21.90;57.07
23281;BME280;11809;56.390;-3.266;2022-07-11T02:25:47;101829.16;;;21.89;56.77
23281;BME280;11809;56.390;-3.266;2022-07-11T02:28:14;101822.00;;;21.89;57.16
23281;BME280;11809;56.390;-3.266;2022-07-11T02:30:43;101818.38;;;21.90;57.30
23281;BME280;11809;56.390;-3.266;2022-07-11T02:33:11;101815.78;;;21.89;56.98
23281;BME280;11809;56.390;-3.266;2022-07-11T02:35:46;101816.63;;;21.89;57.27
23281;BME280;11809;56.390;-3.266;2022-07-11T02:38:13;101822.19;;;21.86;57.27
23281;BME280;11809;56.390;-3.266;2022-07-11T02:40:42;101813.28;;;21.86;57.09
23281;BME280;11809;56.390;-3.266;2022-07-11T02:43:11;101816.16;;;21.83;57.54
23281;BME280;11809;56.390;-3.266;2022-07-11T02:45:38;101812.66;;;21.82;57.38
23281;BME280;11809;56.390;-3.266;2022-07-11T02:48:05;101813.59;;;21.81;57.47
23281;BME280;11809;56.390;-3.266;2022-07-11T02:50:32;101824.31;;;21.81;57.31
23281;BME280;11809;56.390;-3.266;2022-07-11T02:52:59;101818.09;;;21.81;57.29
23281;BME280;11809;56.390;-3.266;2022-07-11T02:55:26;101823.63;;;21.77;57.15
23281;BME280;11809;56.390;-3.266;2022-07-11T02:57:53;101818.28;;;21.77;57.33
23281;BME280;11809;56.390;-3.266;2022-07-11T03:00:20;101816.59;;;21.77;57.14
23281;BME280;11809;56.390;-3.266;2022-07-11T03:02:47;101815.72;;;21.76;57.42
23281;BME280;11809;56.390;-3.266;2022-07-11T03:05:14;101825.56;;;21.75;57.36
23281;BME280;11809;56.390;-3.266;2022-07-11T03:07:41;101824.72;;;21.75;57.38
23281;BME280;11809;56.390;-3.266;2022-07-11T03:10:09;101816.81;;;21.73;57.48
23281;BME280;11809;56.390;-3.266;2022-07-11T03:12:36;101807.16;;;21.71;57.28
23281;BME280;11809;56.390;-3.266;2022-07-11T03:15:05;101802.88;;;21.68;57.24
23281;BME280;11809;56.390;-3.266;2022-07-11T03:17:32;101814.53;;;21.67;57.36
23281;BME280;11809;56.390;-3.266;2022-07-11T03:19:59;101818.06;;;21.68;57.51
23281;BME280;11809;56.390;-3.266;2022-07-11T03:22:27;101816.34;;;21.67;57.50
23281;BME280;11809;56.390;-3.266;2022-07-11T03:24:54;101811.13;;;21.65;57.34
23281;BME280;11809;56.390;-3.266;2022-07-11T03:27:21;101812.06;;;21.64;57.25
23281;BME280;11809;56.390;-3.266;2022-07-11T03:29:48;101811.19;;;21.64;57.75
23281;BME280;11809;56.390;-3.266;2022-07-11T03:32:15;101813.88;;;21.64;57.75
23281;BME280;11809;56.390;-3.266;2022-07-11T03:34:42;101803.16;;;21.64;57.63
23281;BME280;11809;56.390;-3.266;2022-07-11T03:37:29;101801.56;;;21.61;57.48
23281;BME280;11809;56.390;-3.266;2022-07-11T03:39:56;101807.88;;;21.60;57.42
23281;BME280;11809;56.390;-3.266;2022-07-11T03:42:29;101809.72;;;21.60;57.33
23281;BME280;11809;56.390;-3.266;2022-07-11T03:44:56;101802.63;;;21.59;57.63
23281;BME280;11809;56.390;-3.266;2022-07-11T03:47:23;101801.75;;;21.58;57.27
23281;BME280;11809;56.390;-3.266;2022-07-11T03:49:50;101795.66;;;21.56;57.43
23281;BME280;11809;56.390;-3.266;2022-07-11T03:52:17;101798.25;;;21.58;57.25
23281;BME280;11809;56.390;-3.266;2022-07-11T03:54:44;101798.34;;;21.56;57.71
23281;BME280;11809;56.390;-3.266;2022-07-11T03:57:12;101800.06;;;21.57;57.36
23281;BME280;11809;56.390;-3.266;2022-07-11T03:59:38;101801.13;;;21.55;57.82
23281;BME280;11809;56.390;-3.266;2022-07-11T04:02:05;101796.75;;;21.54;57.77
23281;BME280;11809;56.390;-3.266;2022-07-11T04:04:32;101797.59;;;21.54;57.72
23281;BME280;11809;56.390;-3.266;2022-07-11T04:06:59;101795.88;;;21.53;57.54
23281;BME280;11809;56.390;-3.266;2022-07-11T04:09:26;101794.19;;;21.52;57.66
23281;BME280;11809;56.390;-3.266;2022-07-11T04:11:53;101794.25;;;21.51;57.55
23281;BME280;11809;56.390;-3.266;2022-07-11T04:14:20;101796.00;;;21.52;57.77
23281;BME280;11809;56.390;-3.266;2022-07-11T04:16:47;101791.72;;;21.49;57.69
23281;BME280;11809;56.390;-3.266;2022-07-11T04:19:14;101792.56;;;21.50;57.50
23281;BME280;11809;56.390;-3.266;2022-07-11T04:21:41;101791.78;;;21.48;57.38
23281;BME280;11809;56.390;-3.266;2022-07-11T04:24:08;101790.97;;;21.47;57.46
23281;BME280;11809;56.390;-3.266;2022-07-11T04:26:36;101792.78;;;21.47;57.55
23281;BME280;11809;56.390;-3.266;2022-07-11T04:29:02;101790.19;;;21.45;57.83
23281;BME280;11809;56.390;-3.266;2022-07-11T04:31:29;101795.53;;;21.45;57.58
23281;BME280;11809;56.390;-3.266;2022-07-11T04:33:56;101788.50;;;21.44;57.70
23281;BME280;11809;56.390;-3.266;2022-07-11T04:36:23;101800.06;;;21.45;57.40
23281;BME280;11809;56.390;-3.266;2022-07-11T04:38:50;101793.91;;;21.43;57.72
23281;BME280;11809;56.390;-3.266;2022-07-11T04:41:17;101793.16;;;21.41;57.45
23281;BME280;11809;56.390;-3.266;2022-07-11T04:43:44;101802.94;;;21.42;57.53
23281;BME280;11809;56.390;-3.266;2022-07-11T04:46:11;101800.25;;;21.42;57.59
23281;BME280;11809;56.390;-3.266;2022-07-11T04:48:38;101796.72;;;21.41;57.81
23281;BME280;11809;56.390;-3.266;2022-07-11T04:51:05;101791.44;;;21.40;57.71
23281;BME280;11809;56.390;-3.266;2022-07-11T04:53:33;101799.47;;;21.40;57.79
23281;BME280;11809;56.390;-3.266;2022-07-11T04:56:00;101790.69;;;21.38;57.69
23281;BME280;11809;56.390;-3.266;2022-07-11T04:58:27;101800.06;;;21.45;57.57
23281;BME280;11809;56.390;-3.266;2022-07-11T05:00:54;101800.63;;;21.23;55.32
23281;BME280;11809;56.390;-3.266;2022-07-11T05:03:21;101799.03;;;21.06;55.49
23281;BME280;11809;56.390;-3.266;2022-07-11T05:05:48;101794.47;;;20.94;55.57
23281;BME280;11809;56.390;-3.266;2022-07-11T05:08:14;101801.09;;;20.89;55.42
23281;BME280;11809;56.390;-3.266;2022-07-11T05:10:41;101790.97;;;20.80;55.31
23281;BME280;11809;56.390;-3.266;2022-07-11T05:13:08;101800.34;;;20.73;55.63
23281;BME280;11809;56.390;-3.266;2022-07-11T05:15:35;101799.69;;;20.69;55.80
23281;BME280;11809;56.390;-3.266;2022-07-11T05:18:03;101792.91;;;20.64;56.03
23281;BME280;11809;56.390;-3.266;2022-07-11T05:20:30;101800.16;;;20.62;55.70
23281;BME280;11809;56.390;-3.266;2022-07-11T05:22:57;101802.34;;;20.55;56.00
23281;BME280;11809;56.390;-3.266;2022-07-11T05:25:25;101798.94;;;20.53;55.99
23281;BME280;11809;56.390;-3.266;2022-07-11T05:27:51;101801.97;;;20.47;56.15
23281;BME280;11809;56.390;-3.266;2022-07-11T05:30:18;101794.16;;;20.44;55.93
23281;BME280;11809;56.390;-3.266;2022-07-11T05:32:45;101791.59;;;20.42;56.24
23281;BME280;11809;56.390;-3.266;2022-07-11T05:35:13;101789.41;;;20.35;56.53
23281;BME280;11809;56.390;-3.266;2022-07-11T05:37:39;101788.75;;;20.31;56.47
23281;BME280;11809;56.390;-3.266;2022-07-11T05:40:07;101787.69;;;20.34;56.41
23281;BME280;11809;56.390;-3.266;2022-07-11T05:42:34;101782.34;;;20.34;56.77
23281;BME280;11809;56.390;-3.266;2022-07-11T05:45:01;101786.81;;;20.33;56.96
23281;BME280;11809;56.390;-3.266;2022-07-11T05:47:28;101783.50;;;20.30;56.80
23281;BME280;11809;56.390;-3.266;2022-07-11T05:49:55;101782.53;;;20.31;56.53
23281;BME280;11809;56.390;-3.266;2022-07-11T05:52:21;101790.53;;;20.31;56.88
23281;BME280;11809;56.390;-3.266;2022-07-11T05:54:48;101786.19;;;20.30;56.88
23281;BME280;11809;56.390;-3.266;2022-07-11T05:57:15;101781.97;;;20.26;57.01
23281;BME280;11809;56.390;-3.266;2022-07-11T05:59:42;101792.56;;;20.27;57.22
23281;BME280;11809;56.390;-3.266;2022-07-11T06:02:09;101795.13;;;20.29;56.88
23281;BME280;11809;56.390;-3.266;2022-07-11T06:04:36;101783.28;;;20.19;57.07
23281;BME280;11809;56.390;-3.266;2022-07-11T06:07:04;101784.91;;;20.21;57.30
23281;BME280;11809;56.390;-3.266;2022-07-11T06:09:31;101785.31;;;20.29;57.05
23281;BME280;11809;56.390;-3.266;2022-07-11T06:11:58;101790.84;;;20.26;56.93
23281;BME280;11809;56.390;-3.266;2022-07-11T06:14:25;101789.22;;;20.24;57.10
23281;BME280;11809;56.390;-3.266;2022-07-11T06:16:53;101797.56;;;20.18;57.58
23281;BME280;11809;56.390;-3.266;2022-07-11T06:19:20;101788.06;;;20.14;58.08
23281;BME280;11809;56.390;-3.266;2022-07-11T06:21:47;101784.16;;;20.19;57.92
23281;BME280;11809;56.390;-3.266;2022-07-11T06:24:14;101785.94;;;20.19;58.06
23281;BME280;11809;56.390;-3.266;2022-07-11T06:26:41;101778.88;;;20.18;58.31
23281;BME280;11809;56.390;-3.266;2022-07-11T06:29:09;101785.50;;;20.26;57.80
23281;BME280;11809;56.390;-3.266;2022-07-11T06:31:36;101780.84;;;20.30;58.28
23281;BME280;11809;56.390;-3.266;2022-07-11T06:34:03;101784.25;;;20.32;57.84
23281;BME280;11809;56.390;-3.266;2022-07-11T06:36:30;101785.78;;;20.36;58.21
23281;BME280;11809;56.390;-3.266;2022-07-11T06:38:57;101786.94;;;20.32;58.29
23281;BME280;11809;56.390;-3.266;2022-07-11T06:41:24;101786.16;;;20.44;58.26
23281;BME280;11809;56.390;-3.266;2022-07-11T06:43:51;101787.31;;;20.54;58.41
23281;BME280;11809;56.390;-3.266;2022-07-11T06:46:18;101788.72;;;20.60;58.95
23281;BME280;11809;56.390;-3.266;2022-07-11T06:48:45;101794.53;;;20.66;59.36
23281;BME280;11809;56.390;-3.266;2022-07-11T06:51:12;101790.72;;;20.70;59.26
23281;BME280;11809;56.390;-3.266;2022-07-11T06:53:39;101786.69;;;20.77;58.46
23281;BME280;11809;56.390;-3.266;2022-07-11T06:56:07;101788.19;;;20.81;58.62
23281;BME280;11809;56.390;-3.266;2022-07-11T06:58:34;101785.50;;;20.81;58.53
23281;BME280;11809;56.390;-3.266;2022-07-11T07:01:03;101784.19;;;20.88;57.91
23281;BME280;11809;56.390;-3.266;2022-07-11T07:03:32;101781.19;;;20.93;58.20
23281;BME280;11809;56.390;-3.266;2022-07-11T07:06:00;101780.81;;;20.99;57.89
23281;BME280;11809;56.390;-3.266;2022-07-11T07:08:28;101782.50;;;21.00;58.35
23281;BME280;11809;56.390;-3.266;2022-07-11T07:10:56;101780.91;;;20.97;58.31
23281;BME280;11809;56.390;-3.266;2022-07-11T07:13:27;101776.22;;;21.01;58.28
23281;BME280;11809;56.390;-3.266;2022-07-11T07:15:56;101786.78;;;21.02;57.97
23281;BME280;11809;56.390;-3.266;2022-07-11T07:18:26;101782.31;;;21.03;57.98
23281;BME280;11809;56.390;-3.266;2022-07-11T07:20:53;101785.69;;;21.06;57.87
23281;BME280;11809;56.390;-3.266;2022-07-11T07:23:20;101778.41;;;21.08;57.81
23281;BME280;11809;56.390;-3.266;2022-07-11T07:25:47;101780.13;;;21.09;58.21
23281;BME280;11809;56.390;-3.266;2022-07-11T07:28:14;101774.59;;;21.12;57.84
23281;BME280;11809;56.390;-3.266;2022-07-11T07:30:42;101775.00;;;21.06;57.48
23281;BME280;11809;56.390;-3.266;2022-07-11T07:33:11;101777.53;;;21.08;57.34
23281;BME280;11809;56.390;-3.266;2022-07-11T07:35:39;101776.00;;;21.04;57.46
23281;BME280;11809;56.390;-3.266;2022-07-11T07:38:06;101782.69;;;21.11;57.35
23281;BME280;11809;56.390;-3.266;2022-07-11T07:40:33;101768.25;;;21.13;57.47
23281;BME280;11809;56.390;-3.266;2022-07-11T07:43:00;101778.56;;;21.20;57.93
23281;BME280;11809;56.390;-3.266;2022-07-11T07:45:28;101776.00;;;21.18;58.73
23281;BME280;11809;56.390;-3.266;2022-07-11T07:47:55;101777.50;;;21.22;58.61
23281;BME280;11809;56.390;-3.266;2022-07-11T07:50:22;101775.56;;;21.24;59.28
23281;BME280;11809;56.390;-3.266;2022-07-11T07:52:49;101775.56;;;21.24;59.70
23281;BME280;11809;56.390;-3.266;2022-07-11T07:55:17;101771.84;;;21.27;59.68
23281;BME280;11809;56.390;-3.266;2022-07-11T07:57:45;101763.31;;;21.34;58.71
23281;BME280;11809;56.390;-3.266;2022-07-11T08:00:12;101760.00;;;21.31;57.74
23281;BME280;11809;56.390;-3.266;2022-07-11T08:03:07;101759.44;;;21.26;57.84
23281;BME280;11809;56.390;-3.266;2022-07-11T08:05:36;101754.63;;;21.18;57.58
23281;BME280;11809;56.390;-3.266;2022-07-11T14:06:32;101424.84;;;24.55;53.70
23281;BME280;11809;56.390;-3.266;2022-07-11T14:09:20;101435.53;;;24.45;54.12
23281;BME280;11809;56.390;-3.266;2022-07-11T14:11:47;101428.72;;;24.41;54.25
23281;BME280;11809;56.390;-3.266;2022-07-11T14:14:14;101421.66;;;24.40;53.47
23281;BME280;11809;56.390;-3.266;2022-07-11T14:16:42;101425.31;;;24.39;53.90
23281;BME280;11809;56.390;-3.266;2022-07-11T14:19:09;101416.00;;;24.43;52.35
23281;BME280;11809;56.390;-3.266;2022-07-11T14:21:38;101419.69;;;24.42;52.53
23281;BME280;11809;56.390;-3.266;2022-07-11T14:24:05;101409.03;;;24.41;52.71
23281;BME280;11809;56.390;-3.266;2022-07-11T14:26:33;101393.47;;;24.35;52.88
23281;BME280;11809;56.390;-3.266;2022-07-11T14:29:02;101409.66;;;24.44;52.64
23281;BME280;11809;56.390;-3.266;2022-07-11T14:31:31;101416.00;;;24.43;53.01
23281;BME280;11809;56.390;-3.266;2022-07-11T14:33:59;101416.00;;;24.43;53.01
23281;BME280;11809;56.390;-3.266;2022-07-11T14:36:27;101419.44;;;24.45;52.97
23281;BME280;11809;56.390;-3.266;2022-07-11T14:38:54;101412.94;;;24.48;53.01
23281;BME280;11809;56.390;-3.266;2022-07-11T14:41:21;101413.91;;;24.47;53.06
23281;BME280;11809;56.390;-3.266;2022-07-11T14:43:49;101403.31;;;24.45;52.97
23281;BME280;11809;56.390;-3.266;2022-07-11T14:46:16;101407.09;;;24.43;53.10
23281;BME280;11809;56.390;-3.266;2022-07-11T14:48:44;101397.59;;;24.39;52.99
23281;BME280;11809;56.390;-3.266;2022-07-11T14:51:13;101381.41;;;24.29;53.13
23281;BME280;11809;56.390;-3.266;2022-07-11T14:54:00;101396.88;;;24.37;53.47
23281;BME280;11809;56.390;-3.266;2022-07-11T14:56:27;101397.00;;;24.35;53.88
23281;BME280;11809;56.390;-3.266;2022-07-11T14:59:00;101387.91;;;24.27;53.50
23281;BME280;11809;56.390;-3.266;2022-07-11T15:01:27;101392.16;;;24.29;53.59
23281;BME280;11809;56.390;-3.266;2022-07-11T15:03:54;101387.72;;;24.19;53.64
23281;BME280;11809;56.390;-3.266;2022-07-11T15:06:21;101401.44;;;24.25;53.66
23281;BME280;11809;56.390;-3.266;2022-07-11T15:09:09;101407.09;;;24.22;54.23
23281;BME280;11809;56.390;-3.266;2022-07-11T15:11:54;101409.91;;;24.21;53.91
23281;BME280;11809;56.390;-3.266;2022-07-11T15:14:40;101396.06;;;24.25;53.62
23281;BME280;11809;56.390;-3.266;2022-07-11T15:17:07;101403.88;;;24.28;53.34
23281;BME280;11809;56.390;-3.266;2022-07-11T15:19:34;101407.53;;;24.27;53.61
23281;BME280;11809;56.390;-3.266;2022-07-11T15:22:01;101404.28;;;24.24;53.89
23281;BME280;11809;56.390;-3.266;2022-07-11T15:24:28;101399.03;;;24.22;54.29
23281;BME280;11809;56.390;-3.266;2022-07-11T15:26:56;101400.28;;;24.18;54.11
23281;BME280;11809;56.390;-3.266;2022-07-11T15:29:25;101416.91;;;24.12;54.38
23281;BME280;11809;56.390;-3.266;2022-07-11T15:31:52;101409.84;;;24.11;54.61
23281;BME280;11809;56.390;-3.266;2022-07-11T15:34:19;101402.88;;;24.08;54.67
23281;BME280;11809;56.390;-3.266;2022-07-11T15:36:46;101409.31;;;24.06;54.93
23281;BME280;11809;56.390;-3.266;2022-07-11T15:39:15;101415.09;;;24.01;54.96
23281;BME280;11809;56.390;-3.266;2022-07-11T15:41:42;101416.09;;;24.00;55.05
23281;BME280;11809;56.390;-3.266;2022-07-11T15:44:10;101412.56;;;24.00;55.55
23281;BME280;11809;56.390;-3.266;2022-07-11T15:46:38;101407.19;;;24.00;55.20
23281;BME280;11809;56.390;-3.266;2022-07-11T15:49:06;101391.06;;;24.00;55.00
23281;BME280;11809;56.390;-3.266;2022-07-11T15:51:32;101378.34;;;24.02;54.77
23281;BME280;11809;56.390;-3.266;2022-07-11T15:54:01;101367.63;;;24.02;55.06
23281;BME280;11809;56.390;-3.266;2022-07-11T15:56:28;101376.78;;;23.99;54.54
23281;BME280;11809;56.390;-3.266;2022-07-11T15:58:56;101376.63;;;24.01;53.10
23281;BME280;11809;56.390;-3.266;2022-07-11T16:01:24;101365.91;;;24.01;52.32
23281;BME280;11809;56.390;-3.266;2022-07-11T16:03:53;101368.63;;;23.90;51.08
23281;BME280;11809;56.390;-3.266;2022-07-11T16:06:20;101360.72;;;23.88;50.99
23281;BME280;11809;56.390;-3.266;2022-07-11T16:08:48;101348.66;;;23.83;50.34
23281;BME280;11809;56.390;-3.266;2022-07-11T16:11:15;101360.41;;;23.82;51.04
23281;BME280;11809;56.390;-3.266;2022-07-11T16:13:42;101346.50;;;23.77;50.27
23281;BME280;11809;56.390;-3.266;2022-07-11T16:16:09;101352.25;;;23.72;50.14
23281;BME280;11809;56.390;-3.266;2022-07-11T16:18:37;101338.84;;;23.72;50.00
23281;BME280;11809;56.390;-3.266;2022-07-11T16:21:04;101356.06;;;23.70;50.40
23281;BME280;11809;56.390;-3.266;2022-07-11T16:23:31;101346.56;;;23.66;50.41
23281;BME280;11809;56.390;-3.266;2022-07-11T16:25:58;101362.78;;;23.64;49.85
23281;BME280;11809;56.390;-3.266;2022-07-11T16:28:27;101373.66;;;23.63;50.17
23281;BME280;11809;56.390;-3.266;2022-07-11T16:30:54;101358.31;;;23.53;49.86
23281;BME280;11809;56.390;-3.266;2022-07-11T16:33:21;101366.56;;;23.62;50.25
23281;BME280;11809;56.390;-3.266;2022-07-11T16:35:48;101365.13;;;23.58;49.99
23281;BME280;11809;56.390;-3.266;2022-07-11T16:38:15;101369.50;;;23.59;49.69
23281;BME280;11809;56.390;-3.266;2022-07-11T16:40:43;101372.34;;;23.57;49.51
23281;BME280;11809;56.390;-3.266;2022-07-11T16:43:28;101365.38;;;23.55;49.20
23281;BME280;11809;56.390;-3.266;2022-07-11T16:45:56;101364.66;;;23.52;49.46
23281;BME280;11809;56.390;-3.266;2022-07-11T16:48:29;101367.22;;;23.54;48.71
23281;BME280;11809;56.390;-3.266;2022-07-11T16:50:59;101367.47;;;23.51;48.07
23281;BME280;11809;56.390;-3.266;2022-07-11T16:53:28;101378.44;;;23.48;48.97
23281;BME280;11809;56.390;-3.266;2022-07-11T16:55:55;101368.56;;;23.48;48.82
23281;BME280;11809;56.390;-3.266;2022-07-11T16:58:23;101363.22;;;23.48;48.49
23281;BME280;11809;56.390;-3.266;2022-07-11T17:00:50;101356.41;;;23.44;48.18
23281;BME280;11809;56.390;-3.266;2022-07-11T17:03:17;101351.16;;;23.43;48.53
23281;BME280;11809;56.390;-3.266;2022-07-11T17:05:44;101352.25;;;23.40;48.51
23281;BME280;11809;56.390;-3.266;2022-07-11T17:08:13;101343.34;;;23.40;48.23
23281;BME280;11809;56.390;-3.266;2022-07-11T17:11:00;101344.66;;;23.34;48.12
23281;BME280;11809;56.390;-3.266;2022-07-11T17:13:30;101345.31;;;23.38;48.11
23281;BME280;11809;56.390;-3.266;2022-07-11T17:15:57;101338.97;;;23.39;48.47
23281;BME280;11809;56.390;-3.266;2022-07-11T17:18:25;101333.63;;;23.39;48.77
23281;BME280;11809;56.390;-3.266;2022-07-11T17:20:52;101328.09;;;23.40;48.55
23281;BME280;11809;56.390;-3.266;2022-07-11T17:23:19;101338.84;;;23.40;48.63
23281;BME280;11809;56.390;-3.266;2022-07-11T17:25:47;101332.00;;;23.36;48.45
23281;BME280;11809;56.390;-3.266;2022-07-11T17:28:15;101326.66;;;23.36;48.29
23281;BME280;11809;56.390;-3.266;2022-07-11T17:30:44;101330.28;;;23.35;48.08
23281;BME280;11809;56.390;-3.266;2022-07-11T17:33:11;101323.00;;;23.37;48.28
23281;BME280;11809;56.390;-3.266;2022-07-11T17:35:38;101317.38;;;23.40;48.17
23281;BME280;11809;56.390;-3.266;2022-07-11T17:38:06;101325.44;;;23.40;47.24
23281;BME280;11809;56.390;-3.266;2022-07-11T17:40:34;101328.34;;;23.37;47.96
23281;BME280;11809;56.390;-3.266;2022-07-11T17:43:02;101319.56;;;23.35;47.81
23281;BME280;11809;56.390;-3.266;2022-07-11T17:45:30;101316.16;;;23.33;47.68
23281;BME280;11809;56.390;-3.266;2022-07-11T17:47:57;101318.22;;;23.30;47.97
23281;BME280;11809;56.390;-3.266;2022-07-11T17:50:25;101325.41;;;23.29;47.84
23281;BME280;11809;56.390;-3.266;2022-07-11T17:52:52;101323.13;;;23.25;48.84
23281;BME280;11809;56.390;-3.266;2022-07-11T17:55:20;101301.84;;;23.12;49.74
23281;BME280;11809;56.390;-3.266;2022-07-11T17:57:47;101328.34;;;23.26;48.85
23281;BME280;11809;56.390;-3.266;2022-07-11T18:00:15;101324.94;;;23.24;49.01
23281;BME280;11809;56.390;-3.266;2022-07-11T18:02:48;101332.38;;;23.21;48.70
23281;BME280;11809;56.390;-3.266;2022-07-11T18:05:15;101340.72;;;23.18;49.73
23281;BME280;11809;56.390;-3.266;2022-07-11T18:07:43;101338.28;;;23.15;49.31
23281;BME280;11809;56.390;-3.266;2022-07-11T18:10:11;101340.81;;;23.16;50.54
23281;BME280;11809;56.390;-3.266;2022-07-11T18:12:39;101331.81;;;23.17;50.82
23281;BME280;11809;56.390;-3.266;2022-07-11T18:15:08;101336.94;;;23.20;50.84
23281;BME280;11809;56.390;-3.266;2022-07-11T18:17:35;101333.00;;;23.24;49.38
23281;BME280;11809;56.390;-3.266;2022-07-11T18:20:04;101308.03;;;23.13;49.81
23281;BME280;11809;56.390;-3.266;2022-07-11T18:22:33;101320.84;;;23.20;49.03
23281;BME280;11809;56.390;-3.266;2022-07-11T18:25:00;101322.03;;;23.27;49.49
23281;BME280;11809;56.390;-3.266;2022-07-11T18:27:28;101315.94;;;23.25;49.16
23281;BME280;11809;56.390;-3.266;2022-07-11T18:29:55;101312.16;;;23.28;48.84
23281;BME280;11809;56.390;-3.266;2022-07-11T18:32:23;101301.66;;;23.25;49.16
23281;BME280;11809;56.390;-3.266;2022-07-11T18:34:50;101294.59;;;23.24;49.36
23281;BME280;11809;56.390;-3.266;2022-07-11T18:37:17;101293.75;;;23.23;49.13
23281;BME280;11809;56.390;-3.266;2022-07-11T18:39:44;101297.41;;;23.22;49.02
23281;BME280;11809;56.390;-3.266;2022-07-11T18:42:30;101312.19;;;23.17;49.53